Portada
METAR-TAF:

METAR-TAF

Aeroports :

Mecklenburg-Brunswick Regional Airport

South Hill, Virgínia, Estats Units d'Amèrica

latitud: 36-41-19N, longitud: 078-03-15W, altitud: 135 m

Observació

L'informe es va fer fa 29 minuts, a les 05:35 UTC
Vent 8 kt del Sud-Oest
Temperatura 24°C
Humitat 83%
Pressió 1018 hPa
Visibilitat: 16.1 km
Núvols disperses a una alçada de 2400 ft
Núvols disperses a una alçada de 3500 ft
Cel ennuvolat a una alçada de 9000 ft

METAR: KAVC 220535Z AUTO 22008KT 10SM SCT024 SCT035 BKN090 24/21 A3006 RMK AO2 LTG DSNT W T02350210

Hora: 02:04 (06:04 UTC)


TAF: manca

Observacions i pronòstics meteorològics de més de 4000 aeroports (METAR i TAF).

Les estacions disponibles són els punts grocs i vermells al mapa.

Posi el ratolí al punt desitjat per veure el nom de l'estació.

Feu clic per veure les observacions i els pronòstics meteorològics.

Per canviar el mapa: feu clic els botons verds amb una creu de color negre per apropar; al botó verd amb un guió per allunyar la imatge; o en les fletxes verdes per a mapes adjacents.


METAR-TAF: